createdAt,value
2023-01-19T00:01:02.633Z,5.93
2023-01-19T00:03:31.125Z,4.87
2023-01-19T00:05:59.406Z,4.60
2023-01-19T00:08:27.931Z,4.20
2023-01-19T00:10:56.238Z,4.20
2023-01-19T00:13:24.600Z,3.50
2023-01-19T00:15:52.909Z,3.87
2023-01-19T00:18:22.707Z,3.87
2023-01-19T00:20:51.054Z,4.00
2023-01-19T00:23:20.389Z,3.70
2023-01-19T00:25:49.370Z,3.40
2023-01-19T00:28:19.939Z,2.80
2023-01-19T00:30:48.231Z,3.77
2023-01-19T00:33:16.506Z,2.20
2023-01-19T00:35:46.202Z,2.70
2023-01-19T00:38:14.499Z,1.83
2023-01-19T00:40:42.831Z,1.70
2023-01-19T00:43:11.170Z,1.80
2023-01-19T00:45:39.426Z,1.80
2023-01-19T00:48:07.937Z,1.63
2023-01-19T00:50:36.470Z,1.87
2023-01-19T00:53:06.241Z,1.70
2023-01-19T00:55:34.653Z,1.40
2023-01-19T00:58:03.766Z,1.40
2023-01-19T01:00:32.137Z,1.60
2023-01-19T01:03:00.824Z,1.33
2023-01-19T01:05:29.308Z,1.43
2023-01-19T01:07:57.672Z,1.70
2023-01-19T01:10:29.794Z,1.40
2023-01-19T01:13:21.665Z,1.40
2023-01-19T01:15:46.374Z,1.63
2023-01-19T01:18:14.658Z,1.37
2023-01-19T01:20:42.954Z,1.20
2023-01-19T01:23:11.272Z,1.40
2023-01-19T01:25:41.008Z,1.40
2023-01-19T01:28:09.990Z,1.30
2023-01-19T01:30:41.093Z,1.67
2023-01-19T01:33:11.594Z,1.80
2023-01-19T01:35:40.817Z,1.30
2023-01-19T01:38:09.421Z,1.30
2023-01-19T01:40:42.432Z,1.40
2023-01-19T01:43:14.298Z,1.40
2023-01-19T01:45:43.322Z,1.53
2023-01-19T01:48:16.186Z,1.40
2023-01-19T01:51:03.156Z,1.93
2023-01-19T01:53:33.341Z,1.30
2023-01-19T01:56:06.996Z,1.30
2023-01-19T01:58:36.265Z,1.40
2023-01-19T02:01:22.282Z,1.40
2023-01-19T02:03:51.314Z,1.50
2023-01-19T02:06:20.178Z,1.30
2023-01-19T02:09:11.181Z,1.47
2023-01-19T02:11:58.918Z,1.50
2023-01-19T02:14:27.270Z,1.30
2023-01-19T02:16:55.663Z,1.73
2023-01-19T02:19:31.069Z,1.80
2023-01-19T02:22:05.427Z,1.73
2023-01-19T02:24:35.289Z,1.50
2023-01-19T02:27:04.356Z,1.63
2023-01-19T02:29:33.597Z,1.70
2023-01-19T02:32:03.212Z,1.90
2023-01-19T02:34:32.302Z,2.13
2023-01-19T02:37:06.567Z,2.80
2023-01-19T02:39:40.397Z,1.70
2023-01-19T02:42:15.760Z,1.80
2023-01-19T02:44:49.491Z,2.33
2023-01-19T02:47:18.504Z,2.00
2023-01-19T02:49:47.148Z,2.30
2023-01-19T02:52:18.908Z,2.33
2023-01-19T02:55:00.211Z,2.27
2023-01-19T02:57:39.379Z,2.20
2023-01-19T03:00:18.836Z,1.90
2023-01-19T03:02:58.702Z,1.90
2023-01-19T03:05:43.734Z,1.83
2023-01-19T03:08:23.031Z,1.80
2023-01-19T03:11:00.552Z,1.70
2023-01-19T03:13:37.741Z,2.10
2023-01-19T03:16:12.865Z,1.50
2023-01-19T03:18:44.100Z,1.50
2023-01-19T03:21:15.300Z,1.60
2023-01-19T03:23:46.838Z,2.27
2023-01-19T03:26:19.934Z,2.20
2023-01-19T03:28:50.533Z,1.90
2023-01-19T03:31:22.705Z,1.93
2023-01-19T03:33:53.190Z,1.97
2023-01-19T03:36:26.675Z,2.00
2023-01-19T03:38:56.279Z,2.00
2023-01-19T03:41:29.004Z,2.90
2023-01-19T03:43:57.927Z,3.23
2023-01-19T03:46:27.583Z,2.70
2023-01-19T03:48:56.364Z,2.93
2023-01-19T03:51:24.716Z,2.07
2023-01-19T03:53:53.195Z,2.17
2023-01-19T03:56:23.744Z,2.30
2023-01-19T03:58:55.063Z,1.57
2023-01-19T04:01:25.261Z,1.80
2023-01-19T04:03:54.389Z,1.60
2023-01-19T04:06:23.248Z,1.67
2023-01-19T04:08:53.046Z,1.60
2023-01-19T04:11:21.341Z,1.60
2023-01-19T04:13:49.874Z,1.50
2023-01-19T04:16:21.334Z,1.63
2023-01-19T04:18:49.945Z,1.60
2023-01-19T04:21:18.486Z,3.20
2023-01-19T04:23:46.914Z,2.53
2023-01-19T04:26:15.461Z,2.57
2023-01-19T04:28:43.865Z,2.13
2023-01-19T04:31:12.673Z,1.60
2023-01-19T04:33:42.505Z,5.00
2023-01-19T04:36:10.859Z,4.77
2023-01-19T04:38:39.108Z,2.97
2023-01-19T04:41:07.424Z,2.40
2023-01-19T04:43:35.704Z,1.67
2023-01-19T04:46:04.056Z,1.57
2023-01-19T04:48:32.334Z,1.40
2023-01-19T04:51:02.073Z,1.87
2023-01-19T04:53:30.389Z,1.50
2023-01-19T04:55:59.778Z,1.60
2023-01-19T04:58:28.614Z,1.70
2023-01-19T05:00:56.893Z,1.70
2023-01-19T05:03:26.584Z,2.50
2023-01-19T05:05:54.969Z,1.50
2023-01-19T05:08:24.719Z,1.83
2023-01-19T05:10:53.063Z,3.10
2023-01-19T05:13:21.397Z,1.40
2023-01-19T05:15:50.623Z,1.43
2023-01-19T05:18:19.304Z,2.13
2023-01-19T05:20:47.855Z,1.37
2023-01-19T05:23:16.226Z,1.40
2023-01-19T05:25:46.155Z,1.77
2023-01-19T05:28:15.401Z,1.40
2023-01-19T05:30:43.877Z,1.63
2023-01-19T05:33:12.203Z,1.70
2023-01-19T05:35:40.739Z,1.43
2023-01-19T05:38:09.297Z,1.47
2023-01-19T05:40:37.714Z,1.50
2023-01-19T05:43:07.620Z,1.50
2023-01-19T05:45:36.119Z,3.23
2023-01-19T05:48:04.512Z,1.60
2023-01-19T05:50:33.036Z,1.83
2023-01-19T05:53:01.860Z,1.60
2023-01-19T05:55:30.899Z,1.50
2023-01-19T05:57:59.302Z,1.60
2023-01-19T06:00:29.263Z,1.50
2023-01-19T06:02:57.720Z,1.40
2023-01-19T06:05:26.049Z,1.27
2023-01-19T06:07:54.463Z,1.53
2023-01-19T06:10:22.735Z,1.60
2023-01-19T06:12:51.826Z,1.50
2023-01-19T06:15:20.508Z,1.50
2023-01-19T06:17:50.211Z,1.83
2023-01-19T06:20:18.908Z,1.40
2023-01-19T06:22:47.737Z,1.60
2023-01-19T06:25:16.679Z,1.60
2023-01-19T06:27:46.247Z,1.60
2023-01-19T06:30:15.264Z,1.97
2023-01-19T06:32:43.580Z,1.70
2023-01-19T06:35:13.441Z,1.63
2023-01-19T06:37:42.036Z,1.93
2023-01-19T06:40:13.597Z,1.93
2023-01-19T06:42:42.685Z,4.00
2023-01-19T06:45:11.979Z,6.00
2023-01-19T06:47:40.397Z,5.50
2023-01-19T06:50:09.655Z,3.80
2023-01-19T06:52:42.541Z,2.50
2023-01-19T06:55:12.187Z,1.77
2023-01-19T06:57:40.674Z,1.80
2023-01-19T07:00:10.097Z,4.60
2023-01-19T07:02:38.620Z,2.43
2023-01-19T07:05:09.337Z,2.10
2023-01-19T07:07:40.069Z,1.30
2023-01-19T07:10:09.461Z,1.00
2023-01-19T07:12:37.741Z,0.90
2023-01-19T07:15:07.995Z,1.60
2023-01-19T07:17:36.447Z,3.60
2023-01-19T07:20:05.706Z,9.60
2023-01-19T07:22:33.968Z,7.40
2023-01-19T07:25:04.301Z,4.30
2023-01-19T07:27:32.777Z,2.33
2023-01-19T07:30:01.276Z,1.70
2023-01-19T07:32:29.869Z,1.73
2023-01-19T07:34:58.143Z,2.10
2023-01-19T07:37:26.606Z,2.57
2023-01-19T07:39:54.973Z,2.20
2023-01-19T07:42:24.731Z,1.97
2023-01-19T07:44:53.065Z,1.77
2023-01-19T07:47:21.287Z,2.40
2023-01-19T07:49:49.546Z,3.90
2023-01-19T07:52:17.778Z,5.17
2023-01-19T07:54:46.105Z,6.20
2023-01-19T07:57:14.410Z,6.70
2023-01-19T07:59:44.120Z,4.83
2023-01-19T08:02:12.479Z,4.23
2023-01-19T08:04:40.944Z,5.10
2023-01-19T08:07:09.697Z,5.60
2023-01-19T08:09:37.973Z,5.00
2023-01-19T08:12:06.793Z,5.40
2023-01-19T08:14:35.246Z,6.47
2023-01-19T08:17:05.239Z,7.17
2023-01-19T08:19:33.616Z,6.20
2023-01-19T08:22:02.523Z,5.07
2023-01-19T08:24:31.649Z,4.10
2023-01-19T08:27:01.146Z,3.77
2023-01-19T08:29:30.940Z,3.23
2023-01-19T08:32:03.706Z,1.77
2023-01-19T08:34:55.200Z,1.60
2023-01-19T08:37:32.661Z,1.43
2023-01-19T08:40:13.606Z,1.30
2023-01-19T08:42:41.971Z,6.73
2023-01-19T08:45:11.023Z,9.13
2023-01-19T08:47:39.308Z,11.13
2023-01-19T08:50:10.775Z,9.90
2023-01-19T08:52:39.061Z,13.50
2023-01-19T08:55:09.071Z,13.90
2023-01-19T08:57:37.330Z,13.10
2023-01-19T09:00:07.983Z,16.07
2023-01-19T09:02:36.573Z,17.57
2023-01-19T09:05:05.800Z,18.60
2023-01-19T09:07:35.842Z,18.90
2023-01-19T09:10:04.660Z,9.97
2023-01-19T09:12:33.099Z,5.23
2023-01-19T09:15:01.423Z,3.87
2023-01-19T09:17:29.743Z,3.07
2023-01-19T09:19:58.560Z,2.90
2023-01-19T09:22:26.850Z,2.90
2023-01-19T09:24:56.568Z,3.60
2023-01-19T09:27:24.944Z,5.43
2023-01-19T09:29:54.125Z,6.57
2023-01-19T09:32:23.666Z,6.17
2023-01-19T09:34:52.526Z,5.43
2023-01-19T09:37:20.795Z,8.33
2023-01-19T09:39:49.131Z,5.50
2023-01-19T09:42:28.338Z,3.90
2023-01-19T09:44:56.674Z,3.90
2023-01-19T09:47:29.427Z,2.80
2023-01-19T09:50:03.004Z,3.33
2023-01-19T09:52:34.087Z,2.83
2023-01-19T09:55:02.466Z,4.47
2023-01-19T09:57:32.489Z,2.87
2023-01-19T10:00:00.859Z,2.47
2023-01-19T10:02:37.017Z,2.60
2023-01-19T10:05:11.721Z,3.23
2023-01-19T10:07:55.131Z,2.97
2023-01-19T10:10:26.058Z,2.53
2023-01-19T10:13:03.026Z,3.00
2023-01-19T10:15:40.737Z,3.33
2023-01-19T10:18:17.826Z,4.03
2023-01-19T10:20:51.256Z,2.63
2023-01-19T10:23:37.289Z,3.23
2023-01-19T10:26:11.072Z,2.70
2023-01-19T10:28:42.076Z,2.67
2023-01-19T10:31:10.748Z,2.30
2023-01-19T10:33:40.177Z,2.80
2023-01-19T10:36:20.940Z,2.50
2023-01-19T10:38:49.897Z,2.63
2023-01-19T10:41:26.090Z,2.50
2023-01-19T10:44:03.241Z,2.73
2023-01-19T10:46:38.760Z,1.93
2023-01-19T10:49:07.936Z,2.23
2023-01-19T10:51:48.890Z,2.17
2023-01-19T10:54:17.958Z,1.93
2023-01-19T10:56:53.822Z,2.40
2023-01-19T10:59:38.499Z,1.70
2023-01-19T11:02:21.014Z,2.03
2023-01-19T11:04:55.612Z,1.90
2023-01-19T11:07:33.036Z,1.60
2023-01-19T11:10:22.665Z,1.67
2023-01-19T11:12:59.113Z,1.77
2023-01-19T11:15:33.042Z,2.07
2023-01-19T11:18:02.852Z,4.60
2023-01-19T11:20:38.963Z,4.73
2023-01-19T11:23:19.082Z,5.30
2023-01-19T11:25:49.354Z,4.33
2023-01-19T11:28:20.032Z,3.33
2023-01-19T11:30:58.792Z,2.37
2023-01-19T11:33:33.586Z,2.07
2023-01-19T11:36:07.810Z,2.50
2023-01-19T11:38:44.281Z,2.70
2023-01-19T11:41:19.313Z,2.27
2023-01-19T11:43:50.578Z,1.70
2023-01-19T11:46:21.812Z,2.00
2023-01-19T11:48:57.506Z,1.90
2023-01-19T11:51:29.083Z,3.33
2023-01-19T11:53:57.398Z,1.63
2023-01-19T11:56:29.884Z,1.77
2023-01-19T11:58:58.482Z,1.90
2023-01-19T12:01:33.412Z,1.70
2023-01-19T12:04:05.815Z,1.70
2023-01-19T12:06:37.043Z,1.40
2023-01-19T12:09:13.083Z,1.93
2023-01-19T12:11:45.519Z,1.50
2023-01-19T12:14:20.034Z,1.33
2023-01-19T12:16:53.241Z,1.80
2023-01-19T12:19:26.185Z,1.50
2023-01-19T12:21:54.869Z,1.90
2023-01-19T12:24:31.248Z,1.87
2023-01-19T12:27:02.063Z,1.87
2023-01-19T12:29:34.184Z,2.03
2023-01-19T12:32:34.779Z,2.57
2023-01-19T12:35:03.203Z,8.27
2023-01-19T12:37:42.086Z,7.10
2023-01-19T12:40:24.854Z,5.20
2023-01-19T12:42:59.924Z,4.43
2023-01-19T12:45:33.561Z,4.00
2023-01-19T12:48:05.327Z,6.23
2023-01-19T12:50:38.051Z,8.23
2023-01-19T12:53:18.646Z,7.90
2023-01-19T12:55:47.872Z,7.40
2023-01-19T12:58:19.095Z,8.13
2023-01-19T13:00:50.146Z,7.40
2023-01-19T13:03:45.856Z,6.50
2023-01-19T13:06:14.929Z,6.03
2023-01-19T13:09:00.716Z,5.40
2023-01-19T13:11:34.115Z,8.37
2023-01-19T13:14:35.491Z,15.37
2023-01-19T13:17:33.221Z,10.60
2023-01-19T13:20:20.785Z,9.23
2023-01-19T13:23:11.019Z,6.03
2023-01-19T13:25:39.345Z,5.90
2023-01-19T13:28:12.138Z,6.60
2023-01-19T13:30:52.419Z,5.37
2023-01-19T13:33:24.290Z,3.87
2023-01-19T13:35:58.657Z,4.90
2023-01-19T13:38:29.372Z,3.13
2023-01-19T13:41:00.348Z,2.43
2023-01-19T13:43:33.547Z,2.80
2023-01-19T13:46:03.647Z,2.63
2023-01-19T13:48:33.723Z,3.60
2023-01-19T13:51:06.061Z,4.30
2023-01-19T13:53:35.629Z,6.33
2023-01-19T13:56:09.046Z,5.83
2023-01-19T13:58:37.573Z,4.40
2023-01-19T14:01:05.854Z,3.67
2023-01-19T14:03:34.620Z,5.20
2023-01-19T14:06:04.649Z,2.80
2023-01-19T14:08:33.899Z,2.73
2023-01-19T14:11:03.321Z,4.67
2023-01-19T14:13:33.097Z,3.40
2023-01-19T14:16:05.817Z,3.10
2023-01-19T14:18:35.232Z,2.83
2023-01-19T14:21:07.890Z,3.20
2023-01-19T14:23:45.551Z,3.13
2023-01-19T14:26:43.233Z,2.73
2023-01-19T14:29:27.137Z,2.53
2023-01-19T14:32:08.866Z,3.00
2023-01-19T14:34:41.573Z,3.33
2023-01-19T14:37:24.122Z,4.50
2023-01-19T14:39:55.700Z,3.27
2023-01-19T14:42:28.184Z,3.30
2023-01-19T14:44:59.065Z,4.43
2023-01-19T14:47:34.522Z,3.03
2023-01-19T14:50:08.668Z,4.43
2023-01-19T14:52:41.177Z,3.43
2023-01-19T14:55:21.220Z,5.27
2023-01-19T14:57:49.681Z,5.07
2023-01-19T15:00:20.060Z,4.97
2023-01-19T15:02:49.105Z,4.87
2023-01-19T15:05:18.213Z,5.30
2023-01-19T15:07:48.762Z,4.83
2023-01-19T15:10:20.890Z,5.17
2023-01-19T15:12:50.257Z,5.20
2023-01-19T15:15:22.767Z,4.50
2023-01-19T15:17:51.806Z,7.20
2023-01-19T15:20:22.860Z,11.37
2023-01-19T15:22:52.646Z,12.37
2023-01-19T15:25:26.163Z,15.40
2023-01-19T15:27:58.339Z,18.67
2023-01-19T15:30:29.890Z,23.13
2023-01-19T15:32:59.182Z,17.93
2023-01-19T15:35:28.133Z,14.80
2023-01-19T15:37:57.897Z,16.07
2023-01-19T15:40:26.597Z,17.00
2023-01-19T15:42:54.829Z,16.67
2023-01-19T15:45:38.034Z,7.97
2023-01-19T15:48:07.552Z,5.70
2023-01-19T15:50:38.788Z,4.00
2023-01-19T15:53:08.901Z,4.00
2023-01-19T15:55:37.225Z,2.90
2023-01-19T15:58:05.531Z,2.93
2023-01-19T16:00:35.720Z,3.53
2023-01-19T16:03:04.667Z,3.23
2023-01-19T16:05:42.458Z,13.00
2023-01-19T16:08:13.198Z,10.43
2023-01-19T16:10:42.218Z,6.37
2023-01-19T16:13:12.312Z,4.50
2023-01-19T16:15:42.370Z,20.20
2023-01-19T16:18:10.700Z,52.87
2023-01-19T16:20:39.013Z,42.37
2023-01-19T16:23:14.977Z,20.40
2023-01-19T16:25:45.620Z,24.03
2023-01-19T16:28:13.931Z,14.93
2023-01-19T16:30:44.418Z,8.20
2023-01-19T16:33:13.916Z,6.13
2023-01-19T16:35:42.549Z,8.87
2023-01-19T16:38:10.987Z,6.80
2023-01-19T16:40:39.454Z,7.13
2023-01-19T16:43:09.226Z,6.83
2023-01-19T16:45:46.129Z,4.97
2023-01-19T16:48:14.441Z,5.63
2023-01-19T16:50:42.709Z,3.40
2023-01-19T16:53:11.052Z,3.13
2023-01-19T16:55:42.418Z,2.90
2023-01-19T16:58:12.093Z,4.50
2023-01-19T17:00:40.448Z,5.80
2023-01-19T17:03:08.792Z,4.97
2023-01-19T17:05:37.122Z,5.57
2023-01-19T17:08:05.724Z,4.10
2023-01-19T17:10:37.415Z,5.93
2023-01-19T17:13:06.063Z,5.40
2023-01-19T17:15:35.840Z,8.23
2023-01-19T17:18:04.174Z,10.87
2023-01-19T17:20:34.672Z,7.27
2023-01-19T17:23:03.059Z,4.20
2023-01-19T17:25:33.071Z,3.80
2023-01-19T17:28:01.628Z,5.23
2023-01-19T17:30:30.348Z,5.00
2023-01-19T17:33:00.090Z,4.53
2023-01-19T17:35:28.515Z,6.77
2023-01-19T17:37:56.940Z,9.10
2023-01-19T17:40:26.323Z,7.77
2023-01-19T17:42:54.604Z,6.37
2023-01-19T17:45:22.945Z,8.73
2023-01-19T17:47:51.326Z,18.87
2023-01-19T17:50:21.510Z,17.63
2023-01-19T17:52:49.887Z,12.47
2023-01-19T17:55:19.895Z,10.13
2023-01-19T17:57:48.176Z,9.57
2023-01-19T18:00:17.587Z,8.80
2023-01-19T18:02:45.930Z,9.57
2023-01-19T18:05:14.901Z,9.93
2023-01-19T18:07:44.705Z,13.40
2023-01-19T18:10:13.894Z,9.37
2023-01-19T18:12:42.572Z,7.60
2023-01-19T18:15:11.677Z,10.77
2023-01-19T18:17:40.017Z,16.60
2023-01-19T18:20:09.490Z,18.13
2023-01-19T18:22:37.945Z,16.67
2023-01-19T18:25:08.397Z,20.70
2023-01-19T18:27:36.724Z,24.17
2023-01-19T18:30:06.750Z,15.63
2023-01-19T18:32:36.823Z,12.07
2023-01-19T18:35:08.308Z,13.60
2023-01-19T18:37:36.597Z,15.40
2023-01-19T18:40:05.958Z,17.53
2023-01-19T18:42:36.756Z,20.40
2023-01-19T18:45:05.640Z,15.60
2023-01-19T18:47:34.824Z,17.80
2023-01-19T18:50:03.284Z,18.90
2023-01-19T18:52:33.094Z,18.23
2023-01-19T18:55:01.572Z,17.30
2023-01-19T18:57:30.497Z,20.50
2023-01-19T19:00:00.632Z,22.23
2023-01-19T19:02:29.092Z,19.07
2023-01-19T19:04:57.554Z,18.40
2023-01-19T19:07:25.965Z,18.20
2023-01-19T19:09:54.465Z,20.10
2023-01-19T19:12:22.994Z,28.20
2023-01-19T19:14:51.391Z,34.00
2023-01-19T19:17:21.216Z,26.20
2023-01-19T19:19:49.564Z,21.20
2023-01-19T19:22:18.017Z,17.33
2023-01-19T19:24:46.299Z,15.07
2023-01-19T19:27:14.789Z,16.97
2023-01-19T19:29:45.015Z,14.13
2023-01-19T19:32:13.509Z,10.97
2023-01-19T19:34:43.489Z,9.73
2023-01-19T19:37:11.787Z,14.73
2023-01-19T19:39:40.212Z,18.17
2023-01-19T19:42:08.576Z,21.60
2023-01-19T19:44:36.872Z,18.50
2023-01-19T19:47:05.162Z,17.97
2023-01-19T19:49:33.627Z,18.53
2023-01-19T19:52:03.421Z,18.40
2023-01-19T19:54:31.726Z,17.97
2023-01-19T19:57:00.192Z,15.80
2023-01-19T19:59:28.534Z,12.97
2023-01-19T20:01:56.958Z,10.73
2023-01-19T20:04:25.480Z,10.37
2023-01-19T20:06:53.973Z,9.23
2023-01-19T20:09:23.819Z,11.37
2023-01-19T20:11:52.412Z,18.83
2023-01-19T20:14:22.524Z,29.20
2023-01-19T20:16:50.941Z,28.53
2023-01-19T20:19:19.404Z,36.67
2023-01-19T20:21:47.711Z,32.90
2023-01-19T20:24:18.108Z,27.47
2023-01-19T20:26:50.384Z,17.77
2023-01-19T20:29:19.573Z,15.00
2023-01-19T20:31:50.722Z,13.90
2023-01-19T20:34:21.837Z,11.33
2023-01-19T20:36:53.284Z,11.23
2023-01-19T20:39:23.450Z,14.57
2023-01-19T20:41:53.634Z,12.43
2023-01-19T20:44:24.379Z,14.90
2023-01-19T20:46:54.049Z,13.40
2023-01-19T20:49:22.408Z,30.77
2023-01-19T20:51:52.100Z,23.87
2023-01-19T20:54:24.509Z,34.53
2023-01-19T20:56:54.616Z,43.03
2023-01-19T20:59:23.337Z,34.93
2023-01-19T21:01:51.787Z,26.17
2023-01-19T21:04:20.127Z,19.83
2023-01-19T21:06:48.572Z,22.17
2023-01-19T21:09:18.646Z,19.00
2023-01-19T21:11:47.052Z,14.60
2023-01-19T21:14:17.032Z,15.83
2023-01-19T21:16:45.383Z,19.00
2023-01-19T21:19:13.847Z,19.47
2023-01-19T21:21:42.231Z,18.83
2023-01-19T21:24:12.360Z,15.70
2023-01-19T21:26:41.875Z,12.60
2023-01-19T21:29:14.158Z,15.97
2023-01-19T21:31:43.982Z,21.10
2023-01-19T21:34:12.339Z,21.57
2023-01-19T21:36:40.990Z,19.20
2023-01-19T21:39:09.419Z,30.63
2023-01-19T21:41:39.891Z,27.03
2023-01-19T21:44:08.413Z,19.57
2023-01-19T21:46:36.747Z,16.37
2023-01-19T21:49:08.489Z,15.13
2023-01-19T21:51:38.233Z,13.40
2023-01-19T21:54:08.129Z,13.57
2023-01-19T21:56:37.989Z,12.77
2023-01-19T21:59:07.621Z,13.73
2023-01-19T22:01:36.583Z,16.17
2023-01-19T22:04:06.711Z,12.37
2023-01-19T22:06:35.228Z,13.30
2023-01-19T22:09:03.543Z,13.83
2023-01-19T22:11:32.288Z,12.90
2023-01-19T22:14:01.055Z,11.03
2023-01-19T22:16:31.249Z,9.20
2023-01-19T22:19:02.098Z,9.83
2023-01-19T22:21:33.206Z,9.97
2023-01-19T22:24:02.923Z,10.40
2023-01-19T22:26:34.492Z,10.60
2023-01-19T22:29:03.812Z,9.80
2023-01-19T22:31:32.947Z,10.53
2023-01-19T22:34:01.294Z,10.83
2023-01-19T22:36:34.130Z,10.07
2023-01-19T22:39:05.202Z,9.40
2023-01-19T22:41:35.394Z,9.50
2023-01-19T22:44:05.640Z,10.00
2023-01-19T22:46:36.478Z,9.63
2023-01-19T22:49:05.731Z,9.77
2023-01-19T22:51:35.773Z,9.73
2023-01-19T22:54:04.370Z,9.70
2023-01-19T22:56:34.750Z,9.13
2023-01-19T22:59:03.710Z,9.00
2023-01-19T23:01:34.620Z,7.70
2023-01-19T23:04:04.385Z,7.83
2023-01-19T23:06:35.748Z,7.47
2023-01-19T23:09:06.868Z,7.33
2023-01-19T23:11:37.426Z,6.93
2023-01-19T23:14:07.265Z,6.67
2023-01-19T23:16:36.013Z,6.10
2023-01-19T23:19:05.253Z,6.77
2023-01-19T23:21:35.298Z,5.90
2023-01-19T23:24:05.631Z,5.87
2023-01-19T23:26:38.236Z,5.50
2023-01-19T23:29:08.618Z,4.63
2023-01-19T23:31:39.165Z,4.90
2023-01-19T23:34:09.692Z,4.83
2023-01-19T23:36:41.076Z,6.00
2023-01-19T23:39:13.752Z,6.07
2023-01-19T23:41:42.092Z,5.50
2023-01-19T23:44:10.773Z,5.57
2023-01-19T23:46:39.139Z,6.20
2023-01-19T23:49:07.548Z,4.83
2023-01-19T23:51:35.965Z,4.70
2023-01-19T23:54:05.810Z,4.90
2023-01-19T23:56:36.006Z,4.50
2023-01-19T23:59:06.806Z,5.67
